Time;durP1;ratioP1;P1;durP2;ratioP2;P2;SDS_P1;SDS_P2;PMS_P1;PMS_P2;Temp;Humidity;BMP_temperature;BMP_pressure;BME280_temperature;BME280_humidity;BME280_pressure;Samples;Min_cycle;Max_cycle;Signal;HPM_P1;HPM_P2
2022/12/17 13:48:56;;;;;;;12.72;11.67;;;;;;;8.59;100.00;101019.48;478754;111;946116;-79
2022/12/17 13:50:02;;;;;;;12.71;11.57;;;;;;;8.56;100.00;101015.25;470337;112;922611;-79
2022/12/17 13:51:19;;;;;;;13.96;12.83;;;;;;;8.63;100.00;101016.18;467403;112;922570;-80
2022/12/17 13:52:28;;;;;;;13.29;12.28;;;;;;;8.67;100.00;101014.75;470303;112;922565;-78
2022/12/17 13:54:44;;;;;;;13.35;12.38;;;;;;;8.87;100.00;101014.14;472204;110;1203583;-78
2022/12/17 13:55:52;;;;;;;12.08;10.96;;;;;;;8.81;100.00;101009.48;459286;113;922788;-78
2022/12/17 13:57:08;;;;;;;12.21;11.34;;;;;;;8.85;100.00;101011.61;457372;116;923016;-78
2022/12/17 13:58:23;;;;;;;12.21;11.22;;;;;;;8.90;100.00;101016.46;457760;114;923105;-79
2022/12/17 13:59:26;;;;;;;11.33;10.52;;;;;;;8.93;100.00;101016.09;463090;114;923470;-79
2022/12/17 14:00:31;;;;;;;11.25;10.45;;;;;;;8.96;100.00;101016.53;463297;114;922531;-78
2022/12/17 14:01:46;;;;;;;11.64;10.75;;;;;;;8.99;99.89;101007.13;463116;114;922585;-79
2022/12/17 14:02:51;;;;;;;10.91;10.21;;;;;;;9.02;99.84;101009.48;463093;114;922897;-80
2022/12/17 14:04:00;;;;;;;11.23;10.27;;;;;;;9.04;99.82;101013.67;463126;114;923126;-82
2022/12/17 14:05:08;;;;;;;11.45;10.65;;;;;;;9.05;99.77;101019.95;462305;114;922523;-81
2022/12/17 14:06:11;;;;;;;11.03;10.13;;;;;;;9.07;99.57;101017.90;460242;114;922538;-81
2022/12/17 14:07:14;;;;;;;11.58;10.68;;;;;;;9.09;99.62;101024.84;463335;114;922982;-81
2022/12/17 14:08:19;;;;;;;11.71;10.59;;;;;;;9.10;99.62;101018.34;463360;114;922957;-80
2022/12/17 14:09:26;;;;;;;11.10;10.22;;;;;;;9.13;99.48;101014.41;463101;114;923267;-81
2022/12/17 14:10:30;;;;;;;10.70;9.88;;;;;;;9.14;99.52;101011.50;453585;117;922597;-79
2022/12/17 14:13:04;;;;;;;11.11;10.31;;;;;;;9.18;99.46;100999.17;463177;114;922579;-81
2022/12/17 14:14:19;;;;;;;11.49;10.59;;;;;;;9.21;99.51;101003.37;463105;114;922474;-78
2022/12/17 14:15:27;;;;;;;12.42;11.24;;;;;;;9.22;99.47;100991.45;462005;114;922936;-79
2022/12/17 14:16:30;;;;;;;12.03;11.13;;;;;;;9.23;99.46;100993.14;463319;114;922935;-79
2022/12/17 14:17:39;;;;;;;11.41;10.54;;;;;;;9.24;99.43;100997.55;463553;114;922575;-79
2022/12/17 14:18:46;;;;;;;11.37;10.52;;;;;;;9.25;99.41;100991.08;463360;114;922503;-79
2022/12/17 14:19:53;;;;;;;11.40;10.53;;;;;;;9.27;99.56;100991.70;463076;114;922542;-79
2022/12/17 14:20:57;;;;;;;11.40;10.54;;;;;;;9.29;99.57;100997.80;462954;114;922964;-78
2022/12/17 14:22:00;;;;;;;11.33;10.43;;;;;;;9.31;99.57;100995.74;463332;114;922555;-80
2022/12/17 14:23:07;;;;;;;11.44;10.58;;;;;;;9.32;99.36;100993.86;463329;114;922658;-78
2022/12/17 14:24:12;;;;;;;11.46;10.62;;;;;;;9.33;99.33;100990.92;462706;114;923172;-80
2022/12/17 14:25:25;;;;;;;12.48;11.37;;;;;;;9.33;99.38;100988.20;463112;114;922317;-79
2022/12/17 14:26:28;;;;;;;12.03;11.13;;;;;;;9.35;99.28;100994.30;463175;114;922490;-78
2022/12/17 14:27:34;;;;;;;11.96;11.09;;;;;;;9.35;99.21;100986.13;463401;114;923027;-78
2022/12/17 14:28:46;;;;;;;11.28;10.52;;;;;;;9.38;99.16;100987.61;463160;114;922498;-78
2022/12/17 14:29:52;;;;;;;10.39;9.66;;;;;;;9.37;99.10;100984.03;463076;114;922517;-78
2022/12/17 14:31:20;;;;;;;10.72;9.86;;;;;;;9.38;99.08;100983.00;463263;114;922465;-79
2022/12/17 14:32:31;;;;;;;10.80;10.02;;;;;;;9.38;99.09;100977.56;463037;114;923012;-78
2022/12/17 14:33:36;;;;;;;10.54;9.69;;;;;;;9.39;98.97;100978.41;462889;114;922586;-78
2022/12/17 14:34:40;;;;;;;10.96;10.07;;;;;;;9.40;98.99;100972.77;463057;114;923070;-78
2022/12/17 14:35:47;;;;;;;11.04;10.26;;;;;;;9.40;99.07;100972.77;463192;114;923015;-79
2022/12/17 14:36:59;;;;;;;11.57;10.60;;;;;;;9.41;99.05;100971.74;462787;114;922657;-79
2022/12/17 14:38:03;;;;;;;11.04;10.14;;;;;;;9.43;98.86;100974.24;463118;114;922531;-79
2022/12/17 14:39:18;;;;;;;11.12;10.25;;;;;;;9.42;98.88;100967.98;463238;114;922416;-79
2022/12/17 14:40:23;;;;;;;10.61;9.74;;;;;;;9.43;98.86;100971.52;463142;114;922579;-79
2022/12/17 14:42:50;;;;;;;11.81;10.89;;;;;;;9.43;98.78;100972.37;463145;114;922955;-76
2022/12/17 14:44:01;;;;;;;11.44;10.58;;;;;;;9.43;98.67;100960.63;463239;114;923047;-79
2022/12/17 14:45:06;;;;;;;;;;;;;;;9.43;98.64;100958.75;466960;114;922397;-78
2022/12/17 14:46:19;;;;;;;11.03;10.23;;;;;;;9.45;98.77;100972.17;463115;114;922436;-78
2022/12/17 14:47:31;;;;;;;10.77;10.03;;;;;;;9.43;98.81;100966.92;463136;114;922530;-79
2022/12/17 14:50:08;;;;;;;12.65;11.66;;;;;;;9.42;98.89;100961.70;463102;114;922953;-78
2022/12/17 14:51:24;;;;;;;11.84;10.80;;;;;;;9.41;98.79;100969.02;460338;114;922881;-78
2022/12/17 14:52:34;;;;;;;11.67;10.76;;;;;;;9.42;98.76;100973.43;463032;114;922444;-79
2022/12/17 14:53:37;;;;;;;11.47;10.46;;;;;;;9.41;98.87;100968.17;463095;114;922479;-79
2022/12/17 14:54:45;;;;;;;11.97;11.09;;;;;;;9.41;98.99;100962.73;463580;114;922622;-79
2022/12/17 14:55:59;;;;;;;11.29;10.49;;;;;;;9.42;99.00;100957.10;470432;112;922465;-80
2022/12/17 14:57:04;;;;;;;12.07;11.23;;;;;;;9.43;98.87;100957.91;472112;112;922569;-79
2022/12/17 14:58:16;;;;;;;12.03;11.14;;;;;;;9.43;98.74;100950.59;472048;112;922638;-79
2022/12/17 14:59:26;;;;;;;11.96;11.15;;;;;;;9.43;98.72;100961.48;472085;112;922793;-77
2022/12/17 15:00:29;;;;;;;12.38;11.48;;;;;;;9.43;98.64;100964.20;472450;112;922494;-78
2022/12/17 15:01:33;;;;;;;13.54;12.52;;;;;;;9.43;98.68;100963.36;472264;112;922577;-80
2022/12/17 15:02:37;;;;;;;11.05;10.25;;;;;;;9.43;98.61;100966.08;472238;112;922635;-77
2022/12/17 15:03:44;;;;;;;11.73;10.82;;;;;;;9.43;98.59;100961.48;472241;112;923125;-79
2022/12/17 15:04:49;;;;;;;11.87;10.97;;;;;;;9.43;98.69;100953.31;472067;112;922487;-78
2022/12/17 15:05:59;;;;;;;12.18;11.29;;;;;;;9.44;98.59;100954.16;471984;112;922420;-79
2022/12/17 15:07:04;;;;;;;11.93;11.07;;;;;;;9.45;98.54;100961.29;472001;112;922473;-80
2022/12/17 15:08:09;;;;;;;12.61;11.58;;;;;;;9.45;98.48;100964.86;471955;112;922883;-79
2022/12/17 15:09:12;;;;;;;11.99;11.08;;;;;;;9.45;98.42;100953.97;472093;112;922941;-79
2022/12/17 15:10:19;;;;;;;11.87;10.99;;;;;;;9.45;98.50;100953.97;472109;112;922427;-77
2022/12/17 15:11:23;;;;;;;11.64;10.82;;;;;;;9.46;98.45;100957.53;471920;112;930213;-79
2022/12/17 15:12:26;;;;;;;12.49;11.47;;;;;;;9.46;98.41;100960.25;472044;112;922877;-79
2022/12/17 15:13:29;;;;;;;11.58;10.66;;;;;;;9.46;98.45;100963.83;472060;112;922721;-79
2022/12/17 15:14:32;;;;;;;12.87;11.95;;;;;;;9.47;98.49;100965.51;472128;112;923028;-80
2022/12/17 15:15:36;;;;;;;12.60;11.69;;;;;;;9.48;98.45;100964.45;472170;112;922893;-79
2022/12/17 15:16:39;;;;;;;11.22;10.42;;;;;;;9.48;98.46;100969.08;472195;112;922554;-79
2022/12/17 15:17:43;;;;;;;11.62;10.81;;;;;;;9.49;98.29;100970.73;472107;112;922440;-78
2022/12/17 15:18:47;;;;;;;11.53;10.58;;;;;;;9.50;98.23;100972.42;472075;112;923011;-79
2022/12/17 15:19:50;;;;;;;10.09;9.36;;;;;;;9.50;98.23;100964.25;471980;112;930024;-79
2022/12/17 15:20:55;;;;;;;10.29;9.47;;;;;;;9.50;98.22;100973.27;471444;112;922467;-78
2022/12/17 15:22:03;;;;;;;9.44;8.75;;;;;;;9.50;98.17;100965.09;472040;112;923033;-80
2022/12/17 15:23:18;;;;;;;9.46;8.73;;;;;;;9.51;98.11;100977.67;471963;112;922465;-79
2022/12/17 15:24:21;;;;;;;10.64;9.84;;;;;;;9.51;98.20;100980.39;472125;112;923073;-79
2022/12/17 15:25:24;;;;;;;10.82;10.01;;;;;;;9.51;98.10;100972.23;472298;112;922481;-77
2022/12/17 15:26:27;;;;;;;10.29;9.49;;;;;;;9.52;98.11;100973.08;472247;112;923003;-78
2022/12/17 15:27:30;;;;;;;9.87;9.12;;;;;;;9.52;98.14;100973.92;472169;112;922926;-79
2022/12/17 15:28:34;;;;;;;9.95;9.25;;;;;;;9.53;98.01;100966.59;472123;112;922499;-79
2022/12/17 15:29:37;;;;;;;10.06;9.28;;;;;;;9.53;97.98;100974.77;472068;112;922474;-79
2022/12/17 15:30:41;;;;;;;9.73;9.06;;;;;;;9.52;98.02;100965.75;472148;112;922450;-79
2022/12/17 15:31:44;;;;;;;9.85;9.07;;;;;;;9.52;97.95;100965.75;472084;112;922979;-79
2022/12/17 15:32:47;;;;;;;9.58;8.88;;;;;;;9.54;98.10;100963.66;472159;112;923068;-79
2022/12/17 15:33:51;;;;;;;9.76;9.06;;;;;;;9.54;98.00;100969.09;472177;112;922514;-79
2022/12/17 15:34:54;;;;;;;9.75;9.04;;;;;;;9.55;98.01;100956.33;472126;112;922680;-80
2022/12/17 15:35:58;;;;;;;9.59;8.88;;;;;;;9.55;98.09;100964.50;472167;112;923010;-82
2022/12/17 15:37:02;;;;;;;9.88;9.08;;;;;;;9.56;98.01;100969.75;472076;112;922541;-78
2022/12/17 15:38:06;;;;;;;8.91;8.31;;;;;;;9.57;98.06;100965.16;472035;112;922936;-79
2022/12/17 15:39:10;;;;;;;9.33;8.61;;;;;;;9.57;98.02;100967.88;472054;112;922489;-79
2022/12/17 15:40:13;;;;;;;9.12;8.44;;;;;;;9.58;97.97;100970.41;472031;112;923026;-78
2022/12/17 15:44:00;;;;;;;8.79;8.09;;;;;;;9.58;98.00;100970.41;471923;112;922522;-78
2022/12/17 15:45:04;;;;;;;8.51;7.75;;;;;;;9.58;98.01;100966.84;472122;112;922939;-79
2022/12/17 15:46:09;;;;;;;8.69;8.09;;;;;;;9.59;97.92;100960.36;472118;112;922502;-78
2022/12/17 15:47:12;;;;;;;8.45;7.85;;;;;;;9.60;97.94;100970.19;472159;112;922538;-79
2022/12/17 15:48:18;;;;;;;8.96;8.24;;;;;;;9.59;98.02;100968.53;472183;112;922719;-78
2022/12/17 15:49:21;;;;;;;8.19;7.61;;;;;;;9.59;97.94;100969.34;471942;112;922618;-78
2022/12/17 15:50:25;;;;;;;8.89;8.18;;;;;;;9.61;97.89;100966.42;472060;112;922852;-79
2022/12/17 15:51:28;;;;;;;7.65;7.15;;;;;;;9.61;97.89;100960.98;472174;112;923024;-78
2022/12/17 15:52:31;;;;;;;6.89;6.39;;;;;;;9.61;97.99;100956.38;472593;112;923071;-80
2022/12/17 15:53:34;;;;;;;8.41;7.75;;;;;;;9.62;97.97;100959.95;472984;112;922564;-80
2022/12/17 15:54:38;;;;;;;8.09;7.21;;;;;;;9.63;97.88;100969.80;471848;112;922940;-78
2022/12/17 15:55:43;;;;;;;7.64;7.12;;;;;;;9.62;97.94;100966.23;471946;112;922588;-78
2022/12/17 15:56:52;;;;;;;6.98;6.49;;;;;;;9.63;97.77;100964.36;472600;112;922441;-79
2022/12/17 15:57:55;;;;;;;7.22;6.72;;;;;;;9.62;97.90;100962.67;473547;112;922322;-78
2022/12/17 15:58:59;;;;;;;6.83;6.33;;;;;;;9.63;97.79;100961.64;473801;111;922860;-78
2022/12/17 16:00:02;;;;;;;7.38;6.81;;;;;;;9.63;97.76;100958.91;473961;109;922126;-80
2022/12/17 16:01:07;;;;;;;6.73;6.20;;;;;;;9.62;97.91;100962.67;473711;109;922504;-80
2022/12/17 16:02:10;;;;;;;6.88;6.41;;;;;;;9.64;97.91;100952.44;473973;111;922067;-78
2022/12/17 16:03:14;;;;;;;6.85;6.36;;;;;;;9.66;97.91;100957.66;473850;111;921961;-79
2022/12/17 16:04:17;;;;;;;7.48;6.89;;;;;;;9.65;97.82;100956.81;473706;112;921999;-80
2022/12/17 16:05:22;;;;;;;6.77;6.19;;;;;;;9.66;97.88;100953.05;472893;109;922487;-80
2022/12/17 16:06:26;;;;;;;7.09;6.59;;;;;;;9.67;97.88;100952.02;473698;112;922045;-79
2022/12/17 16:07:30;;;;;;;6.76;6.29;;;;;;;9.67;97.78;100957.47;473767;112;922211;-80
2022/12/17 16:08:33;;;;;;;7.03;6.45;;;;;;;9.68;97.75;100955.59;473862;112;922130;-80
2022/12/17 16:09:36;;;;;;;6.14;5.73;;;;;;;9.68;97.68;100955.59;473622;112;921940;-81
2022/12/17 16:10:40;;;;;;;6.70;5.93;;;;;;;9.68;97.76;100941.97;473736;112;929981;-80
2022/12/17 16:11:43;;;;;;;5.86;5.36;;;;;;;9.68;97.63;100952.86;473672;112;922719;-78
2022/12/17 16:12:46;;;;;;;5.72;5.33;;;;;;;9.68;97.63;100953.70;473617;112;922207;-80
2022/12/17 16:13:54;;;;;;;5.92;5.49;;;;;;;9.67;97.66;100952.02;473596;112;922597;-77
2022/12/17 16:14:57;;;;;;;5.61;5.20;;;;;;;9.69;97.75;100943.66;473367;112;922312;-79
2022/12/17 16:16:00;;;;;;;6.28;5.81;;;;;;;9.69;97.64;100949.11;473756;112;922151;-78
2022/12/17 16:17:05;;;;;;;5.81;5.41;;;;;;;9.70;97.66;100953.52;473384;112;922155;-77
2022/12/17 16:18:08;;;;;;;6.04;5.60;;;;;;;9.70;97.69;100959.81;473560;112;922326;-80
2022/12/17 16:19:11;;;;;;;5.61;5.24;;;;;;;9.71;97.71;100952.45;473159;112;922365;-79
2022/12/17 16:20:14;;;;;;;5.67;4.97;;;;;;;9.71;97.68;100952.45;472869;112;922866;-79
2022/12/17 16:21:18;;;;;;;6.22;5.73;;;;;;;9.71;97.76;100953.30;472850;112;922339;-79
2022/12/17 16:22:21;;;;;;;5.69;5.29;;;;;;;9.71;97.58;100953.30;472801;112;922226;-79
2022/12/17 16:23:24;;;;;;;5.31;4.87;;;;;;;9.72;97.59;100957.70;472817;112;922514;-79
2022/12/17 16:24:27;;;;;;;5.70;5.30;;;;;;;9.73;97.67;100950.38;472800;112;922428;-78
2022/12/17 16:25:30;;;;;;;5.67;5.28;;;;;;;9.72;97.65;100951.41;472713;112;922440;-78
2022/12/17 16:26:33;;;;;;;5.76;5.25;;;;;;;9.73;97.61;100942.21;472653;112;922675;-81
2022/12/17 16:27:36;;;;;;;5.52;5.03;;;;;;;9.72;97.55;100952.26;472591;112;930440;-79
2022/12/17 16:28:41;;;;;;;5.19;4.79;;;;;;;9.73;97.51;100961.27;472731;112;922346;-79
2022/12/17 16:29:46;;;;;;;5.72;5.29;;;;;;;9.72;97.51;100952.26;472501;112;922442;-78
2022/12/17 16:31:08;;;;;;;6.01;5.51;;;;;;;9.73;97.54;100951.22;472494;112;922936;-80
2022/12/17 16:32:12;;;;;;;5.24;4.79;;;;;;;9.74;97.50;100943.90;472510;112;922792;-78
2022/12/17 16:33:15;;;;;;;5.37;4.92;;;;;;;9.73;97.49;100956.67;472655;112;922406;-79
2022/12/17 16:34:18;;;;;;;6.46;5.99;;;;;;;9.74;97.55;100954.79;472715;112;922550;-80
2022/12/17 16:35:22;;;;;;;5.28;4.84;;;;;;;9.74;97.54;100952.91;472653;112;922766;-80
2022/12/17 16:36:25;;;;;;;5.91;5.44;;;;;;;9.74;97.50;100954.79;472467;112;922587;-79
2022/12/17 16:37:29;;;;;;;5.22;4.86;;;;;;;9.74;97.49;100954.79;472674;112;922704;-79
2022/12/17 16:38:33;;;;;;;5.03;4.68;;;;;;;9.74;97.62;100944.74;472623;112;923283;-78
2022/12/17 16:39:36;;;;;;;5.36;4.98;;;;;;;9.75;97.53;100948.31;463377;114;922451;-81
2022/12/17 16:40:39;;;;;;;5.04;4.64;;;;;;;9.75;97.55;100945.59;463819;112;930487;-77
2022/12/17 16:41:43;;;;;;;5.39;4.99;;;;;;;9.75;97.50;100938.26;472615;112;922856;-78
2022/12/17 16:42:46;;;;;;;5.34;4.94;;;;;;;9.76;97.45;100936.38;472552;112;922946;-78
2022/12/17 16:43:50;;;;;;;4.93;4.57;;;;;;;9.76;97.50;100936.38;472590;112;922548;-78
2022/12/17 16:44:53;;;;;;;4.83;4.48;;;;;;;9.75;97.40;100935.54;472483;112;922492;-78
2022/12/17 16:45:56;;;;;;;4.81;4.35;;;;;;;9.76;97.30;100936.38;472607;112;922490;-78
2022/12/17 16:46:59;;;;;;;4.83;4.42;;;;;;;9.77;97.38;100938.04;472496;112;922982;-79
2022/12/17 16:48:03;;;;;;;4.49;4.13;;;;;;;9.76;97.40;100936.38;472456;112;922613;-80
2022/12/17 16:49:12;;;;;;;4.75;4.42;;;;;;;9.76;97.30;100933.66;472522;112;930588;-79
2022/12/17 16:50:16;;;;;;;4.78;4.43;;;;;;;9.77;97.47;100927.98;472350;112;923135;-80
2022/12/17 16:51:20;;;;;;;4.51;4.11;;;;;;;9.77;97.39;100927.14;472606;112;922486;-79
2022/12/17 16:52:25;;;;;;;4.99;4.69;;;;;;;9.77;97.37;100927.14;471448;112;922843;-79
2022/12/17 16:53:30;;;;;;;4.68;4.29;;;;;;;9.77;97.34;100918.97;472607;112;922740;-80
2022/12/17 16:54:33;;;;;;;5.23;4.83;;;;;;;9.77;97.35;100922.54;472360;112;922517;-80
2022/12/17 16:55:42;;;;;;;4.67;4.37;;;;;;;9.79;97.36;100925.07;472574;112;922483;-79
2022/12/17 16:56:48;;;;;;;5.19;4.83;;;;;;;9.79;97.35;100930.52;472414;112;922999;-79
2022/12/17 16:57:51;;;;;;;4.78;4.46;;;;;;;9.79;97.29;100931.36;472495;112;922575;-80
2022/12/17 16:58:55;;;;;;;5.02;4.53;;;;;;;9.79;97.29;100931.36;472515;112;930503;-79
2022/12/17 16:59:58;;;;;;;4.87;4.46;;;;;;;9.80;97.30;100926.76;472485;112;922679;-81
2022/12/17 17:01:01;;;;;;;5.34;4.93;;;;;;;9.79;97.28;100928.64;472563;112;922824;-79
2022/12/17 17:02:08;;;;;;;4.90;4.60;;;;;;;9.79;97.28;100922.34;472543;112;922476;-78
2022/12/17 17:03:12;;;;;;;5.08;4.66;;;;;;;9.80;97.31;100921.31;472242;112;922937;-79
2022/12/17 17:04:18;;;;;;;4.14;3.84;;;;;;;9.80;97.36;100916.71;472507;112;922796;-80
2022/12/17 17:05:22;;;;;;;4.39;4.08;;;;;;;9.82;97.40;100916.48;472347;112;922609;-79
2022/12/17 17:06:25;;;;;;;4.49;4.19;;;;;;;9.81;97.28;100918.39;472572;112;922516;-78
2022/12/17 17:07:31;;;;;;;4.93;4.63;;;;;;;9.82;97.26;100925.50;471684;112;922842;-81
2022/12/17 17:08:36;;;;;;;5.03;4.64;;;;;;;9.83;97.20;100918.17;472632;112;923015;-80
2022/12/17 17:09:40;;;;;;;5.17;4.63;;;;;;;9.84;97.18;100917.98;472399;112;922933;-80
2022/12/17 17:10:44;;;;;;;4.94;4.64;;;;;;;9.84;97.12;100917.98;472584;112;922680;-80
2022/12/17 17:11:47;;;;;;;4.19;3.89;;;;;;;9.86;97.16;100920.51;472638;112;923123;-80
2022/12/17 17:12:52;;;;;;;4.59;4.26;;;;;;;9.85;97.10;100908.77;472042;112;922791;-80
2022/12/17 17:13:55;;;;;;;4.78;4.24;;;;;;;9.85;96.97;100913.38;472455;112;922841;-80
2022/12/17 17:14:59;;;;;;;4.69;4.39;;;;;;;9.85;96.90;100919.66;472542;112;922502;-80
2022/12/17 17:16:02;;;;;;;4.53;4.19;;;;;;;9.86;96.89;100920.51;472431;112;922424;-81
2022/12/17 17:17:06;;;;;;;5.72;5.24;;;;;;;9.86;96.85;100918.63;472498;112;923055;-80
2022/12/17 17:18:09;;;;;;;4.62;4.33;;;;;;;9.86;96.98;100917.78;472537;112;930516;-81
2022/12/17 17:19:12;;;;;;;4.62;4.17;;;;;;;9.86;97.00;100913.19;472588;112;923015;-78
2022/12/17 17:20:15;;;;;;;4.89;4.46;;;;;;;9.86;96.95;100910.45;472539;112;922978;-80
2022/12/17 17:21:22;;;;;;;4.65;4.35;;;;;;;9.85;96.90;100903.33;472453;112;922577;-79
2022/12/17 17:22:25;;;;;;;4.92;4.60;;;;;;;9.85;96.95;100899.76;472375;112;922894;-78
2022/12/17 17:23:29;;;;;;;4.55;4.21;;;;;;;9.85;96.99;100894.31;472566;112;922449;-81
2022/12/17 17:24:32;;;;;;;5.44;5.04;;;;;;;9.86;97.02;100893.27;463441;114;922602;-79
2022/12/17 17:25:36;;;;;;;4.69;4.29;;;;;;;9.86;97.06;100896.00;463828;112;922580;-78
2022/12/17 17:26:41;;;;;;;5.02;4.64;;;;;;;9.86;97.00;100894.12;469460;112;922595;-79
2022/12/17 17:27:45;;;;;;;4.74;4.43;;;;;;;9.86;97.12;100896.00;472576;112;922533;-77
2022/12/17 17:28:48;;;;;;;5.96;4.58;;;;;;;9.87;97.08;100894.93;472486;112;922441;-79
2022/12/17 17:29:51;;;;;;;4.54;4.24;;;;;;;9.88;97.07;100891.17;472622;112;922528;-82
2022/12/17 17:30:59;;;;;;;5.87;5.34;;;;;;;9.87;97.07;100884.87;472454;112;922833;-79
2022/12/17 17:32:03;;;;;;;4.83;4.53;;;;;;;9.87;97.00;100884.87;472373;112;922689;-78
2022/12/17 17:33:08;;;;;;;5.35;4.95;;;;;;;9.87;96.98;100884.87;471226;112;922628;-79
2022/12/17 17:34:13;;;;;;;5.33;4.92;;;;;;;9.88;97.02;100885.72;472662;112;922908;-76
2022/12/17 17:35:16;;;;;;;5.65;5.25;;;;;;;9.87;97.10;100878.59;472691;112;922415;-79
2022/12/17 17:36:28;;;;;;;5.08;4.64;;;;;;;9.88;97.15;100880.27;472689;112;923136;-80
2022/12/17 17:37:31;;;;;;;6.02;5.54;;;;;;;9.88;97.17;100874.83;472598;112;922520;-79
2022/12/17 17:38:36;;;;;;;5.52;5.08;;;;;;;9.90;97.24;100861.86;472770;112;922573;-80
2022/12/17 17:39:40;;;;;;;5.62;5.22;;;;;;;9.89;97.13;100871.06;472537;112;922417;-79
2022/12/17 17:40:43;;;;;;;5.91;5.51;;;;;;;9.90;97.14;100864.58;472582;112;922439;-81
2022/12/17 17:41:46;;;;;;;5.94;5.44;;;;;;;9.91;97.27;100861.66;472601;112;923020;-79
2022/12/17 17:42:49;;;;;;;5.66;5.26;;;;;;;9.90;97.28;100845.52;472638;112;922940;-77
2022/12/17 17:44:07;;;;;;;6.96;6.39;;;;;;;9.93;97.27;100864.16;472347;112;922553;-80
2022/12/17 17:45:10;;;;;;;5.98;5.43;;;;;;;9.93;97.31;100861.44;471228;112;922700;-79
2022/12/17 17:46:15;;;;;;;6.17;5.68;;;;;;;9.93;97.36;100862.28;472454;112;922522;-79
2022/12/17 17:47:19;;;;;;;5.87;5.44;;;;;;;9.94;97.43;100854.95;463334;114;930578;-80
2022/12/17 17:48:22;;;;;;;5.68;5.31;;;;;;;9.94;97.42;100853.07;463973;112;922544;-78
2022/12/17 17:49:25;;;;;;;6.47;5.97;;;;;;;9.96;97.39;100852.88;472542;112;922562;-78
2022/12/17 17:50:28;;;;;;;6.40;6.01;;;;;;;9.97;97.43;100860.01;472535;112;922466;-78
2022/12/17 17:51:35;;;;;;;6.45;5.96;;;;;;;9.97;97.54;100858.13;463563;114;923236;-78
2022/12/17 17:52:40;;;;;;;6.34;5.84;;;;;;;9.97;97.49;100860.01;461172;112;922584;-81
2022/12/17 17:53:45;;;;;;;6.82;6.32;;;;;;;9.98;97.42;100861.66;472536;112;922539;-79
2022/12/17 17:54:48;;;;;;;6.15;5.75;;;;;;;9.98;97.42;100864.39;472345;112;922838;-79
2022/12/17 17:55:52;;;;;;;6.71;6.20;;;;;;;9.98;97.51;100861.66;464824;112;923144;-79
2022/12/17 17:56:55;;;;;;;6.17;5.76;;;;;;;9.98;97.40;100858.94;463110;114;923360;-79
2022/12/17 17:57:58;;;;;;;5.86;5.46;;;;;;;9.97;97.50;100860.85;463203;114;922569;-78
2022/12/17 17:59:04;;;;;;;5.61;5.24;;;;;;;9.99;97.50;100863.34;453886;117;922945;-78
2022/12/17 18:00:09;;;;;;;6.22;5.74;;;;;;;10.00;97.56;100856.86;463024;114;922443;-78
2022/12/17 18:01:25;;;;;;;5.71;5.31;;;;;;;10.00;97.51;100854.98;463095;114;922377;-79
2022/12/17 18:02:28;;;;;;;6.46;6.06;;;;;;;10.02;97.61;100857.51;453720;117;922903;-79
2022/12/17 18:03:32;;;;;;;5.89;5.49;;;;;;;10.02;97.50;100854.78;463080;114;923032;-78
2022/12/17 18:04:35;;;;;;;5.91;5.51;;;;;;;10.03;97.57;100853.75;453883;117;922543;-79
2022/12/17 18:05:41;;;;;;;6.43;5.93;;;;;;;10.02;97.46;100854.78;463148;114;923067;-79
2022/12/17 18:06:45;;;;;;;5.92;5.52;;;;;;;10.04;97.48;100852.67;462979;114;922585;-79
2022/12/17 18:07:50;;;;;;;5.88;5.51;;;;;;;10.05;97.48;100859.81;450915;117;922585;-79
2022/12/17 18:08:57;;;;;;;6.57;6.07;;;;;;;10.06;97.49;100861.50;463239;114;922724;-81
2022/12/17 18:10:01;;;;;;;6.93;6.43;;;;;;;10.08;97.50;100859.42;462986;114;922514;-79
2022/12/17 18:11:07;;;;;;;6.36;5.96;;;;;;;10.08;97.63;100848.52;453772;116;922834;-81
2022/12/17 18:14:54;;;;;;;6.69;6.19;;;;;;;10.12;97.58;100857.95;462984;114;922513;-81
2022/12/17 18:16:00;;;;;;;6.64;6.24;;;;;;;10.12;97.54;100854.39;450825;117;923056;-80
2022/12/17 18:17:03;;;;;;;6.76;6.26;;;;;;;10.12;97.54;100849.78;463043;114;922524;-79
2022/12/17 18:18:07;;;;;;;7.06;6.49;;;;;;;10.13;97.48;100851.47;453817;116;930507;-79
2022/12/17 18:19:17;;;;;;;6.48;5.98;;;;;;;10.13;97.59;100848.74;462320;114;922466;-79
2022/12/17 18:20:20;;;;;;;6.58;5.91;;;;;;;10.14;97.58;100842.25;463022;114;922517;-79
2022/12/17 18:21:24;;;;;;;6.14;5.64;;;;;;;10.15;97.65;100843.91;463189;114;923081;-81
2022/12/17 18:22:27;;;;;;;6.41;5.94;;;;;;;10.17;97.58;100841.02;463090;114;922494;-79
2022/12/17 18:23:30;;;;;;;6.33;5.92;;;;;;;10.19;97.65;100839.78;453955;117;923477;-76
2022/12/17 18:24:33;;;;;;;7.88;7.22;;;;;;;10.18;97.48;100832.64;463404;114;922423;-78
2022/12/17 18:25:37;;;;;;;6.22;5.82;;;;;;;10.20;97.61;100827.00;454072;117;922536;-81
2022/12/17 18:26:42;;;;;;;6.27;5.87;;;;;;;10.20;97.52;100818.83;463306;114;922913;-80
2022/12/17 18:27:45;;;;;;;7.17;6.67;;;;;;;10.21;97.59;100821.31;463183;114;930360;-80
2022/12/17 18:28:48;;;;;;;7.60;6.97;;;;;;;10.23;97.55;100811.06;463487;114;922482;-80
2022/12/17 18:29:52;;;;;;;6.22;5.83;;;;;;;10.24;97.52;100818.20;453872;116;922337;-79
2022/12/17 18:30:55;;;;;;;7.56;6.99;;;;;;;10.26;97.35;100817.97;463083;114;930506;-80
2022/12/17 18:31:58;;;;;;;6.55;6.03;;;;;;;10.25;97.36;100828.06;453882;117;922611;-78
2022/12/17 18:33:01;;;;;;;7.21;6.71;;;;;;;10.26;97.31;100824.26;463182;114;922651;-79
2022/12/17 18:34:07;;;;;;;7.43;6.87;;;;;;;10.27;97.36;100834.13;453751;117;922907;-78
2022/12/17 18:35:11;;;;;;;7.51;7.01;;;;;;;10.28;97.35;100829.52;463093;114;922512;-77
2022/12/17 18:36:20;;;;;;;7.47;6.97;;;;;;;10.29;97.34;100825.75;453801;117;922500;-79
2022/12/17 18:37:30;;;;;;;7.66;7.13;;;;;;;10.39;97.43;100832.47;477148;110;947087;-78
2022/12/17 18:38:34;;;;;;;7.43;6.59;;;;;;;10.30;97.36;100824.70;461312;114;922643;-79
2022/12/17 18:39:38;;;;;;;7.44;6.94;;;;;;;10.30;97.33;100828.27;457545;115;922524;-79
2022/12/17 18:40:41;;;;;;;7.19;6.60;;;;;;;10.30;97.38;100814.65;457499;115;922807;-79
2022/12/17 18:43:23;;;;;;;6.78;6.31;;;;;;;10.31;97.23;100818.22;457414;114;922948;-79
2022/12/17 18:44:27;;;;;;;7.02;6.52;;;;;;;10.31;97.18;100816.30;457399;116;923491;-79
2022/12/17 18:45:31;;;;;;;6.84;6.34;;;;;;;10.31;97.20;100826.39;457502;116;922723;-79
2022/12/17 18:46:34;;;;;;;7.36;6.79;;;;;;;10.31;97.28;100813.58;457578;116;922698;-80
2022/12/17 18:47:38;;;;;;;6.88;6.46;;;;;;;10.31;97.23;100810.84;458339;115;923084;-80
2022/12/17 18:48:40;;;;;;;6.99;6.49;;;;;;;10.32;97.14;100812.53;458317;113;923439;-80
2022/12/17 18:49:44;;;;;;;7.13;6.63;;;;;;;10.32;97.07;100801.62;457598;116;922605;-80
2022/12/17 18:50:47;;;;;;;6.57;6.12;;;;;;;10.32;97.06;100801.62;457564;116;922575;-78
2022/12/17 18:51:51;;;;;;;7.26;6.76;;;;;;;10.33;97.16;100797.02;457504;116;922558;-79
2022/12/17 18:52:55;;;;;;;7.06;6.56;;;;;;;10.33;97.04;100797.86;457391;116;922957;-79
2022/12/17 18:54:00;;;;;;;6.85;6.42;;;;;;;10.33;97.03;100792.41;457541;114;922426;-80
2022/12/17 18:55:04;;;;;;;7.92;7.32;;;;;;;10.34;97.05;100791.38;458093;113;922583;-79
2022/12/17 18:56:12;;;;;;;7.68;7.11;;;;;;;10.34;97.09;100785.92;466558;113;923338;-80
2022/12/17 18:57:17;;;;;;;9.18;7.88;;;;;;;10.34;97.11;100788.65;465778;113;922828;-79
2022/12/17 18:58:20;;;;;;;8.43;7.75;;;;;;;10.35;97.10;100797.67;466735;113;922623;-78
2022/12/17 18:59:26;;;;;;;8.29;7.52;;;;;;;10.35;97.06;100790.33;466713;113;922357;-79
2022/12/17 19:00:31;;;;;;;7.99;7.39;;;;;;;10.35;97.11;100792.22;466556;113;922552;-80
2022/12/17 19:01:36;;;;;;;7.36;6.86;;;;;;;10.35;97.11;100784.88;457397;116;922656;-78